sensor_id;sensor_type;location;lat;lon;timestamp;pressure;altitude;pressure_sealevel;temperature;humidity
64340;BME280;63709;53.258;-8.814;2023-04-24T00:01:18;101011.63;;;12.68;100.00
64340;BME280;63709;53.258;-8.814;2023-04-24T00:03:44;100941.22;;;12.33;100.00
64340;BME280;63709;53.258;-8.814;2023-04-24T00:06:10;100958.63;;;12.39;100.00
64340;BME280;63709;53.258;-8.814;2023-04-24T00:08:36;100979.66;;;12.55;100.00
64340;BME280;63709;53.258;-8.814;2023-04-24T00:11:05;101010.19;;;12.64;100.00
64340;BME280;63709;53.258;-8.814;2023-04-24T00:13:31;100962.16;;;12.40;100.00
64340;BME280;63709;53.258;-8.814;2023-04-24T00:15:57;100952.19;;;12.30;100.00
64340;BME280;63709;53.258;-8.814;2023-04-24T00:18:23;100987.22;;;12.50;100.00
64340;BME280;63709;53.258;-8.814;2023-04-24T00:20:48;101040.38;;;12.77;100.00
64340;BME280;63709;53.258;-8.814;2023-04-24T00:23:14;101022.50;;;12.66;100.00
64340;BME280;63709;53.258;-8.814;2023-04-24T00:25:40;101042.69;;;12.70;100.00
64340;BME280;63709;53.258;-8.814;2023-04-24T00:28:07;100942.69;;;12.15;100.00
64340;BME280;63709;53.258;-8.814;2023-04-24T00:30:33;101008.97;;;12.56;100.00
64340;BME280;63709;53.258;-8.814;2023-04-24T00:32:58;100954.16;;;12.17;100.00
64340;BME280;63709;53.258;-8.814;2023-04-24T00:35:24;101050.25;;;12.65;100.00
64340;BME280;63709;53.258;-8.814;2023-04-24T00:37:50;101025.94;;;12.57;100.00
64340;BME280;63709;53.258;-8.814;2023-04-24T00:40:18;100962.78;;;12.09;100.00
64340;BME280;63709;53.258;-8.814;2023-04-24T00:42:45;100955.84;;;12.07;100.00
64340;BME280;63709;53.258;-8.814;2023-04-24T00:45:11;100981.00;;;12.16;100.00
64340;BME280;63709;53.258;-8.814;2023-04-24T00:47:37;101008.66;;;12.39;100.00
64340;BME280;63709;53.258;-8.814;2023-04-24T00:50:04;101040.25;;;12.33;100.00
64340;BME280;63709;53.258;-8.814;2023-04-24T00:52:30;101005.72;;;12.30;100.00
64340;BME280;63709;53.258;-8.814;2023-04-24T00:54:58;101015.19;;;12.23;100.00
64340;BME280;63709;53.258;-8.814;2023-04-24T00:57:24;101014.00;;;12.27;100.00
64340;BME280;63709;53.258;-8.814;2023-04-24T00:59:52;101040.25;;;12.33;100.00
64340;BME280;63709;53.258;-8.814;2023-04-24T01:02:19;101033.94;;;12.23;100.00
64340;BME280;63709;53.258;-8.814;2023-04-24T01:04:45;101049.03;;;12.35;100.00
64340;BME280;63709;53.258;-8.814;2023-04-24T01:07:12;101046.13;;;12.39;100.00
64340;BME280;63709;53.258;-8.814;2023-04-24T01:09:40;101016.66;;;12.16;100.00
64340;BME280;63709;53.258;-8.814;2023-04-24T01:12:09;101044.63;;;12.34;100.00
64340;BME280;63709;53.258;-8.814;2023-04-24T01:14:36;100982.13;;;11.91;100.00
64340;BME280;63709;53.258;-8.814;2023-04-24T01:17:03;101043.78;;;12.23;100.00
64340;BME280;63709;53.258;-8.814;2023-04-24T01:19:29;101018.84;;;12.11;100.00
64340;BME280;63709;53.258;-8.814;2023-04-24T01:21:58;101041.09;;;12.11;100.00
64340;BME280;63709;53.258;-8.814;2023-04-24T01:24:24;101047.44;;;12.22;100.00
64340;BME280;63709;53.258;-8.814;2023-04-24T01:26:50;100985.44;;;11.81;100.00
64340;BME280;63709;53.258;-8.814;2023-04-24T01:29:16;101051.44;;;12.16;100.00
64340;BME280;63709;53.258;-8.814;2023-04-24T01:31:42;100990.69;;;11.72;100.00
64340;BME280;63709;53.258;-8.814;2023-04-24T01:34:08;101041.69;;;12.04;100.00
64340;BME280;63709;53.258;-8.814;2023-04-24T01:36:34;101038.03;;;12.05;100.00
64340;BME280;63709;53.258;-8.814;2023-04-24T01:39:01;101031.50;;;11.98;100.00
64340;BME280;63709;53.258;-8.814;2023-04-24T01:41:28;101062.28;;;12.15;100.00
64340;BME280;63709;53.258;-8.814;2023-04-24T01:43:54;101026.00;;;11.99;100.00
64340;BME280;63709;53.258;-8.814;2023-04-24T01:46:22;101058.25;;;12.09;100.00
64340;BME280;63709;53.258;-8.814;2023-04-24T01:48:48;101067.50;;;12.16;100.00
64340;BME280;63709;53.258;-8.814;2023-04-24T01:51:14;101003.69;;;11.76;100.00
64340;BME280;63709;53.258;-8.814;2023-04-24T01:53:40;101015.00;;;11.80;100.00
64340;BME280;63709;53.258;-8.814;2023-04-24T01:56:06;101016.50;;;11.84;100.00
64340;BME280;63709;53.258;-8.814;2023-04-24T01:58:32;101080.63;;;12.08;100.00
64340;BME280;63709;53.258;-8.814;2023-04-24T02:00:58;101069.81;;;12.09;100.00
64340;BME280;63709;53.258;-8.814;2023-04-24T02:03:25;101014.84;;;11.70;100.00
64340;BME280;63709;53.258;-8.814;2023-04-24T02:05:52;100998.94;;;11.69;100.00
64340;BME280;63709;53.258;-8.814;2023-04-24T02:08:18;100995.75;;;11.63;100.00
64340;BME280;63709;53.258;-8.814;2023-04-24T02:10:44;101026.53;;;11.80;100.00
64340;BME280;63709;53.258;-8.814;2023-04-24T02:13:11;100993.06;;;11.63;100.00
64340;BME280;63709;53.258;-8.814;2023-04-24T02:15:38;101013.28;;;11.79;100.00
64340;BME280;63709;53.258;-8.814;2023-04-24T02:18:03;101024.84;;;11.79;100.00
64340;BME280;63709;53.258;-8.814;2023-04-24T02:20:29;101075.41;;;12.18;100.00
64340;BME280;63709;53.258;-8.814;2023-04-24T02:22:55;101026.97;;;11.87;100.00
64340;BME280;63709;53.258;-8.814;2023-04-24T02:25:23;101027.22;;;11.95;100.00
64340;BME280;63709;53.258;-8.814;2023-04-24T02:27:48;101069.69;;;12.11;100.00
64340;BME280;63709;53.258;-8.814;2023-04-24T02:30:14;101040.69;;;11.94;100.00
64340;BME280;63709;53.258;-8.814;2023-04-24T02:32:40;101001.97;;;11.75;100.00
64340;BME280;63709;53.258;-8.814;2023-04-24T02:35:07;101076.13;;;12.20;100.00
64340;BME280;63709;53.258;-8.814;2023-04-24T02:37:32;101049.84;;;12.02;100.00
64340;BME280;63709;53.258;-8.814;2023-04-24T02:39:58;101075.28;;;12.19;100.00
64340;BME280;63709;53.258;-8.814;2023-04-24T02:42:24;101047.78;;;12.06;100.00
64340;BME280;63709;53.258;-8.814;2023-04-24T02:44:49;101059.19;;;11.97;100.00
64340;BME280;63709;53.258;-8.814;2023-04-24T02:47:18;101040.06;;;11.90;100.00
64340;BME280;63709;53.258;-8.814;2023-04-24T02:49:44;101054.59;;;12.10;100.00
64340;BME280;63709;53.258;-8.814;2023-04-24T02:52:12;101038.22;;;11.79;100.00
64340;BME280;63709;53.258;-8.814;2023-04-24T02:54:41;101055.84;;;11.82;100.00
64340;BME280;63709;53.258;-8.814;2023-04-24T02:57:06;101017.03;;;11.65;100.00
64340;BME280;63709;53.258;-8.814;2023-04-24T02:59:32;100999.34;;;11.51;100.00
64340;BME280;63709;53.258;-8.814;2023-04-24T03:01:58;101081.69;;;11.70;100.00
64340;BME280;63709;53.258;-8.814;2023-04-24T03:04:25;101037.19;;;11.58;100.00
64340;BME280;63709;53.258;-8.814;2023-04-24T03:06:52;101048.31;;;11.52;100.00
64340;BME280;63709;53.258;-8.814;2023-04-24T03:09:21;101043.72;;;11.54;100.00
64340;BME280;63709;53.258;-8.814;2023-04-24T03:11:47;101053.53;;;11.42;100.00
64340;BME280;63709;53.258;-8.814;2023-04-24T03:14:16;101031.97;;;11.32;100.00
64340;BME280;63709;53.258;-8.814;2023-04-24T03:16:42;101077.09;;;11.48;100.00
64340;BME280;63709;53.258;-8.814;2023-04-24T03:19:09;101088.88;;;11.70;100.00
64340;BME280;63709;53.258;-8.814;2023-04-24T03:21:38;101031.69;;;11.24;100.00
64340;BME280;63709;53.258;-8.814;2023-04-24T03:24:07;101048.09;;;11.31;100.00
64340;BME280;63709;53.258;-8.814;2023-04-24T03:26:33;101006.78;;;11.00;100.00
64340;BME280;63709;53.258;-8.814;2023-04-24T03:28:59;101063.63;;;11.26;100.00
64340;BME280;63709;53.258;-8.814;2023-04-24T03:31:25;101043.28;;;11.12;100.00
64340;BME280;63709;53.258;-8.814;2023-04-24T03:33:53;101086.66;;;11.39;100.00
64340;BME280;63709;53.258;-8.814;2023-04-24T03:36:19;101032.13;;;11.18;100.00
64340;BME280;63709;53.258;-8.814;2023-04-24T03:38:47;101088.19;;;11.55;100.00
64340;BME280;63709;53.258;-8.814;2023-04-24T03:41:15;101050.84;;;11.42;100.00
64340;BME280;63709;53.258;-8.814;2023-04-24T03:43:43;101048.84;;;11.33;100.00
64340;BME280;63709;53.258;-8.814;2023-04-24T03:46:11;101058.19;;;11.27;100.00
64340;BME280;63709;53.258;-8.814;2023-04-24T03:48:38;101059.63;;;11.20;100.00
64340;BME280;63709;53.258;-8.814;2023-04-24T03:51:08;101018.31;;;11.00;100.00
64340;BME280;63709;53.258;-8.814;2023-04-24T03:53:34;101070.34;;;11.31;100.00
64340;BME280;63709;53.258;-8.814;2023-04-24T03:56:00;101047.88;;;11.10;100.00
64340;BME280;63709;53.258;-8.814;2023-04-24T03:58:33;101030.47;;;11.04;100.00
64340;BME280;63709;53.258;-8.814;2023-04-24T04:01:02;101109.97;;;11.37;100.00
64340;BME280;63709;53.258;-8.814;2023-04-24T04:03:28;101061.28;;;10.97;100.00
64340;BME280;63709;53.258;-8.814;2023-04-24T04:05:54;101057.38;;;10.77;100.00
64340;BME280;63709;53.258;-8.814;2023-04-24T04:08:19;101035.09;;;10.65;100.00
64340;BME280;63709;53.258;-8.814;2023-04-24T04:10:45;101054.78;;;10.88;100.00
64340;BME280;63709;53.258;-8.814;2023-04-24T04:13:11;101059.09;;;10.78;100.00
64340;BME280;63709;53.258;-8.814;2023-04-24T04:15:38;101109.38;;;10.84;100.00
64340;BME280;63709;53.258;-8.814;2023-04-24T04:18:03;101058.06;;;10.68;100.00
64340;BME280;63709;53.258;-8.814;2023-04-24T04:20:30;101102.22;;;10.85;100.00
64340;BME280;63709;53.258;-8.814;2023-04-24T04:23:01;101129.50;;;11.14;100.00
64340;BME280;63709;53.258;-8.814;2023-04-24T04:25:27;101127.41;;;10.94;100.00
64340;BME280;63709;53.258;-8.814;2023-04-24T04:27:55;101089.03;;;10.45;100.00
64340;BME280;63709;53.258;-8.814;2023-04-24T04:30:21;101134.38;;;10.83;100.00
64340;BME280;63709;53.258;-8.814;2023-04-24T04:32:47;101121.41;;;10.53;100.00
64340;BME280;63709;53.258;-8.814;2023-04-24T04:35:13;101133.56;;;10.57;100.00
64340;BME280;63709;53.258;-8.814;2023-04-24T04:37:39;101142.19;;;10.74;100.00
64340;BME280;63709;53.258;-8.814;2023-04-24T04:40:06;101104.94;;;10.34;100.00
64340;BME280;63709;53.258;-8.814;2023-04-24T04:42:32;101135.13;;;10.60;100.00
64340;BME280;63709;53.258;-8.814;2023-04-24T04:45:00;101153.94;;;10.71;100.00
64340;BME280;63709;53.258;-8.814;2023-04-24T04:47:26;101138.56;;;10.49;100.00
64340;BME280;63709;53.258;-8.814;2023-04-24T04:49:52;101152.56;;;10.27;100.00
64340;BME280;63709;53.258;-8.814;2023-04-24T04:52:18;101157.25;;;10.36;100.00
64340;BME280;63709;53.258;-8.814;2023-04-24T04:54:49;101165.78;;;10.29;100.00
64340;BME280;63709;53.258;-8.814;2023-04-24T04:57:15;101151.44;;;10.17;100.00
64340;BME280;63709;53.258;-8.814;2023-04-24T04:59:41;101149.25;;;9.97;100.00
64340;BME280;63709;53.258;-8.814;2023-04-24T05:02:07;101162.84;;;10.19;100.00
64340;BME280;63709;53.258;-8.814;2023-04-24T05:04:33;101160.28;;;10.17;100.00
64340;BME280;63709;53.258;-8.814;2023-04-24T05:07:00;101148.16;;;9.86;100.00
64340;BME280;63709;53.258;-8.814;2023-04-24T05:09:29;101124.69;;;9.52;100.00
64340;BME280;63709;53.258;-8.814;2023-04-24T05:11:55;101178.97;;;9.63;100.00
64340;BME280;63709;53.258;-8.814;2023-04-24T05:14:21;101169.53;;;9.45;100.00
64340;BME280;63709;53.258;-8.814;2023-04-24T05:16:48;101177.44;;;9.47;100.00
64340;BME280;63709;53.258;-8.814;2023-04-24T05:19:14;101171.94;;;9.35;100.00
64340;BME280;63709;53.258;-8.814;2023-04-24T05:21:40;101194.28;;;9.74;100.00
64340;BME280;63709;53.258;-8.814;2023-04-24T05:24:07;101208.25;;;9.51;100.00
64340;BME280;63709;53.258;-8.814;2023-04-24T05:26:32;101207.94;;;9.55;100.00
64340;BME280;63709;53.258;-8.814;2023-04-24T05:28:59;101216.44;;;9.48;100.00
64340;BME280;63709;53.258;-8.814;2023-04-24T05:31:27;101197.31;;;9.41;100.00
64340;BME280;63709;53.258;-8.814;2023-04-24T05:33:54;101211.13;;;9.19;100.00
64340;BME280;63709;53.258;-8.814;2023-04-24T05:36:20;101202.66;;;9.27;100.00
64340;BME280;63709;53.258;-8.814;2023-04-24T05:38:45;101198.97;;;9.01;100.00
64340;BME280;63709;53.258;-8.814;2023-04-24T05:41:11;101220.63;;;9.37;100.00
64340;BME280;63709;53.258;-8.814;2023-04-24T05:43:36;101225.22;;;9.07;100.00
64340;BME280;63709;53.258;-8.814;2023-04-24T05:46:02;101247.47;;;9.34;100.00
64340;BME280;63709;53.258;-8.814;2023-04-24T05:48:27;101225.97;;;8.80;100.00
64340;BME280;63709;53.258;-8.814;2023-04-24T05:50:53;101252.91;;;8.90;100.00
64340;BME280;63709;53.258;-8.814;2023-04-24T05:53:19;101262.22;;;9.11;100.00
64340;BME280;63709;53.258;-8.814;2023-04-24T05:55:45;101254.63;;;8.91;100.00
64340;BME280;63709;53.258;-8.814;2023-04-24T05:58:11;101273.59;;;8.85;100.00
64340;BME280;63709;53.258;-8.814;2023-04-24T06:00:37;101253.63;;;8.78;100.00
64340;BME280;63709;53.258;-8.814;2023-04-24T06:03:05;101282.47;;;8.55;100.00
64340;BME280;63709;53.258;-8.814;2023-04-24T06:05:31;101291.22;;;9.02;100.00
64340;BME280;63709;53.258;-8.814;2023-04-24T06:07:57;101295.00;;;8.83;100.00
64340;BME280;63709;53.258;-8.814;2023-04-24T06:10:24;101271.16;;;8.52;100.00
64340;BME280;63709;53.258;-8.814;2023-04-24T06:12:49;101307.25;;;8.86;100.00
64340;BME280;63709;53.258;-8.814;2023-04-24T06:15:15;101294.69;;;8.43;100.00
64340;BME280;63709;53.258;-8.814;2023-04-24T06:17:41;101233.03;;;8.21;100.00
64340;BME280;63709;53.258;-8.814;2023-04-24T06:20:07;101318.31;;;8.94;100.00
64340;BME280;63709;53.258;-8.814;2023-04-24T06:22:33;101311.53;;;8.88;100.00
64340;BME280;63709;53.258;-8.814;2023-04-24T06:25:00;101309.16;;;8.84;100.00
64340;BME280;63709;53.258;-8.814;2023-04-24T06:27:26;101324.56;;;8.93;100.00
64340;BME280;63709;53.258;-8.814;2023-04-24T06:29:52;101327.19;;;9.23;100.00
64340;BME280;63709;53.258;-8.814;2023-04-24T06:32:23;101325.81;;;8.87;100.00
64340;BME280;63709;53.258;-8.814;2023-04-24T06:34:53;101310.81;;;9.01;100.00
64340;BME280;63709;53.258;-8.814;2023-04-24T06:37:20;101316.91;;;9.03;100.00
64340;BME280;63709;53.258;-8.814;2023-04-24T06:39:46;101314.56;;;9.12;100.00
64340;BME280;63709;53.258;-8.814;2023-04-24T06:42:12;101330.72;;;9.24;100.00
64340;BME280;63709;53.258;-8.814;2023-04-24T06:44:37;101333.03;;;8.85;100.00
64340;BME280;63709;53.258;-8.814;2023-04-24T06:47:09;101304.44;;;9.03;100.00
64340;BME280;63709;53.258;-8.814;2023-04-24T06:49:36;101328.91;;;9.24;100.00
64340;BME280;63709;53.258;-8.814;2023-04-24T06:52:03;101343.66;;;9.30;100.00
64340;BME280;63709;53.258;-8.814;2023-04-24T06:54:30;101347.47;;;9.54;100.00
64340;BME280;63709;53.258;-8.814;2023-04-24T06:56:57;101329.66;;;9.26;100.00
64340;BME280;63709;53.258;-8.814;2023-04-24T06:59:24;101356.81;;;9.61;100.00
64340;BME280;63709;53.258;-8.814;2023-04-24T07:01:50;101357.47;;;9.51;100.00
64340;BME280;63709;53.258;-8.814;2023-04-24T07:04:19;101358.97;;;9.83;100.00
64340;BME280;63709;53.258;-8.814;2023-04-24T07:06:45;101358.63;;;9.61;100.00
64340;BME280;63709;53.258;-8.814;2023-04-24T07:09:14;101357.66;;;9.62;100.00
64340;BME280;63709;53.258;-8.814;2023-04-24T07:11:45;101371.59;;;9.23;100.00
64340;BME280;63709;53.258;-8.814;2023-04-24T07:14:12;101343.38;;;9.49;100.00
64340;BME280;63709;53.258;-8.814;2023-04-24T07:16:38;101357.00;;;9.58;100.00
64340;BME280;63709;53.258;-8.814;2023-04-24T07:19:05;101388.69;;;9.77;100.00
64340;BME280;63709;53.258;-8.814;2023-04-24T07:21:31;101373.25;;;9.82;100.00
64340;BME280;63709;53.258;-8.814;2023-04-24T07:23:58;101389.34;;;9.52;100.00
64340;BME280;63709;53.258;-8.814;2023-04-24T07:26:23;101385.25;;;9.75;100.00
64340;BME280;63709;53.258;-8.814;2023-04-24T07:28:49;101384.31;;;9.76;100.00
64340;BME280;63709;53.258;-8.814;2023-04-24T07:31:15;101402.69;;;9.81;100.00
64340;BME280;63709;53.258;-8.814;2023-04-24T07:33:41;101401.59;;;10.12;100.00
64340;BME280;63709;53.258;-8.814;2023-04-24T07:36:07;101391.81;;;9.55;100.00
64340;BME280;63709;53.258;-8.814;2023-04-24T07:38:32;101412.50;;;9.80;100.00
64340;BME280;63709;53.258;-8.814;2023-04-24T07:40:58;101409.53;;;9.85;100.00
64340;BME280;63709;53.258;-8.814;2023-04-24T07:43:24;101391.56;;;9.45;100.00
64340;BME280;63709;53.258;-8.814;2023-04-24T07:45:51;101411.81;;;9.62;100.00
64340;BME280;63709;53.258;-8.814;2023-04-24T07:48:17;101393.34;;;9.59;100.00
64340;BME280;63709;53.258;-8.814;2023-04-24T07:50:44;101405.16;;;9.98;100.00
64340;BME280;63709;53.258;-8.814;2023-04-24T07:53:10;101424.31;;;9.76;100.00
64340;BME280;63709;53.258;-8.814;2023-04-24T07:55:35;101429.72;;;9.89;100.00
64340;BME280;63709;53.258;-8.814;2023-04-24T07:58:01;101426.19;;;9.60;100.00
64340;BME280;63709;53.258;-8.814;2023-04-24T08:00:26;101414.78;;;9.58;100.00
64340;BME280;63709;53.258;-8.814;2023-04-24T08:02:52;101430.09;;;9.54;100.00
64340;BME280;63709;53.258;-8.814;2023-04-24T08:05:18;101432.19;;;10.21;100.00
64340;BME280;63709;53.258;-8.814;2023-04-24T08:07:45;101427.03;;;10.32;100.00
64340;BME280;63709;53.258;-8.814;2023-04-24T08:10:15;101437.91;;;10.00;100.00
64340;BME280;63709;53.258;-8.814;2023-04-24T08:12:41;101417.63;;;9.98;100.00
64340;BME280;63709;53.258;-8.814;2023-04-24T08:15:07;101413.53;;;10.06;100.00
64340;BME280;63709;53.258;-8.814;2023-04-24T08:17:34;101446.25;;;10.23;100.00
64340;BME280;63709;53.258;-8.814;2023-04-24T08:20:03;101450.69;;;10.09;100.00
64340;BME280;63709;53.258;-8.814;2023-04-24T08:22:31;101436.50;;;9.94;100.00
64340;BME280;63709;53.258;-8.814;2023-04-24T08:24:59;101441.03;;;9.92;100.00
64340;BME280;63709;53.258;-8.814;2023-04-24T08:27:26;101454.75;;;10.01;100.00
64340;BME280;63709;53.258;-8.814;2023-04-24T08:29:53;101448.00;;;9.81;100.00
64340;BME280;63709;53.258;-8.814;2023-04-24T08:32:18;101466.38;;;10.14;100.00
64340;BME280;63709;53.258;-8.814;2023-04-24T08:34:44;101448.28;;;10.05;100.00
64340;BME280;63709;53.258;-8.814;2023-04-24T08:37:13;101428.56;;;9.93;100.00
64340;BME280;63709;53.258;-8.814;2023-04-24T08:39:39;101446.38;;;9.78;100.00
64340;BME280;63709;53.258;-8.814;2023-04-24T08:42:05;101469.44;;;10.08;100.00
64340;BME280;63709;53.258;-8.814;2023-04-24T08:44:35;101468.94;;;10.44;100.00
64340;BME280;63709;53.258;-8.814;2023-04-24T08:47:02;101465.22;;;10.47;100.00
64340;BME280;63709;53.258;-8.814;2023-04-24T08:49:29;101474.50;;;10.27;100.00
64340;BME280;63709;53.258;-8.814;2023-04-24T08:51:57;101469.94;;;10.29;100.00
64340;BME280;63709;53.258;-8.814;2023-04-24T08:54:26;101459.91;;;10.47;100.00
64340;BME280;63709;53.258;-8.814;2023-04-24T08:56:53;101483.94;;;10.74;100.00
64340;BME280;63709;53.258;-8.814;2023-04-24T08:59:21;101480.66;;;10.41;100.00
64340;BME280;63709;53.258;-8.814;2023-04-24T09:01:48;101486.38;;;10.21;100.00
64340;BME280;63709;53.258;-8.814;2023-04-24T09:04:17;101490.56;;;10.68;100.00
64340;BME280;63709;53.258;-8.814;2023-04-24T09:06:48;101505.00;;;10.78;100.00
64340;BME280;63709;53.258;-8.814;2023-04-24T09:09:20;101492.91;;;10.73;100.00
64340;BME280;63709;53.258;-8.814;2023-04-24T09:11:51;101477.91;;;10.57;100.00
64340;BME280;63709;53.258;-8.814;2023-04-24T09:14:19;101509.91;;;10.99;100.00
64340;BME280;63709;53.258;-8.814;2023-04-24T09:16:46;101499.41;;;10.96;100.00
64340;BME280;63709;53.258;-8.814;2023-04-24T09:19:12;101514.47;;;10.97;100.00
64340;BME280;63709;53.258;-8.814;2023-04-24T09:21:39;101525.44;;;11.06;100.00
64340;BME280;63709;53.258;-8.814;2023-04-24T09:24:15;101515.91;;;11.02;100.00
64340;BME280;63709;53.258;-8.814;2023-04-24T09:26:43;101519.28;;;10.92;100.00
64340;BME280;63709;53.258;-8.814;2023-04-24T09:29:16;101505.63;;;10.96;100.00
64340;BME280;63709;53.258;-8.814;2023-04-24T09:31:42;101491.03;;;11.14;100.00
64340;BME280;63709;53.258;-8.814;2023-04-24T09:34:21;101531.25;;;11.13;100.00
64340;BME280;63709;53.258;-8.814;2023-04-24T09:36:48;101519.31;;;11.04;100.00
64340;BME280;63709;53.258;-8.814;2023-04-24T09:39:15;101511.72;;;11.38;100.00
64340;BME280;63709;53.258;-8.814;2023-04-24T09:41:48;101506.81;;;11.32;100.00
64340;BME280;63709;53.258;-8.814;2023-04-24T09:44:18;101538.50;;;11.51;100.00
64340;BME280;63709;53.258;-8.814;2023-04-24T09:46:58;101539.53;;;11.35;100.00
64340;BME280;63709;53.258;-8.814;2023-04-24T09:49:30;101529.63;;;11.10;100.00
64340;BME280;63709;53.258;-8.814;2023-04-24T09:52:10;101544.78;;;11.10;100.00
64340;BME280;63709;53.258;-8.814;2023-04-24T09:54:39;101537.09;;;11.45;100.00
64340;BME280;63709;53.258;-8.814;2023-04-24T09:57:07;101527.09;;;11.61;100.00
64340;BME280;63709;53.258;-8.814;2023-04-24T09:59:33;101549.03;;;11.67;100.00
64340;BME280;63709;53.258;-8.814;2023-04-24T10:02:00;101538.25;;;11.41;100.00
64340;BME280;63709;53.258;-8.814;2023-04-24T10:04:27;101544.97;;;11.61;100.00
64340;BME280;63709;53.258;-8.814;2023-04-24T10:06:56;101537.31;;;11.42;100.00
64340;BME280;63709;53.258;-8.814;2023-04-24T10:09:24;101541.97;;;11.78;100.00
64340;BME280;63709;53.258;-8.814;2023-04-24T10:11:53;101522.59;;;11.62;100.00
64340;BME280;63709;53.258;-8.814;2023-04-24T10:14:22;101540.78;;;11.82;100.00
64340;BME280;63709;53.258;-8.814;2023-04-24T10:16:54;101535.56;;;11.81;100.00
64340;BME280;63709;53.258;-8.814;2023-04-24T10:19:25;101552.53;;;12.07;100.00
64340;BME280;63709;53.258;-8.814;2023-04-24T10:21:52;101542.16;;;12.02;100.00
64340;BME280;63709;53.258;-8.814;2023-04-24T10:24:19;101553.69;;;12.41;100.00
64340;BME280;63709;53.258;-8.814;2023-04-24T10:26:46;101556.41;;;12.78;100.00
64340;BME280;63709;53.258;-8.814;2023-04-24T10:29:15;101554.63;;;12.53;100.00
64340;BME280;63709;53.258;-8.814;2023-04-24T10:31:46;101555.38;;;12.55;100.00
64340;BME280;63709;53.258;-8.814;2023-04-24T10:34:14;101560.22;;;12.11;100.00
64340;BME280;63709;53.258;-8.814;2023-04-24T10:36:52;101563.88;;;12.36;100.00
64340;BME280;63709;53.258;-8.814;2023-04-24T10:39:21;101572.34;;;12.17;100.00
64340;BME280;63709;53.258;-8.814;2023-04-24T10:41:49;101578.31;;;12.46;100.00
64340;BME280;63709;53.258;-8.814;2023-04-24T10:44:15;101577.03;;;12.39;100.00
64340;BME280;63709;53.258;-8.814;2023-04-24T10:46:46;101579.50;;;12.29;100.00
64340;BME280;63709;53.258;-8.814;2023-04-24T10:49:14;101580.47;;;12.28;100.00
64340;BME280;63709;53.258;-8.814;2023-04-24T10:52:04;101582.69;;;12.34;100.00
64340;BME280;63709;53.258;-8.814;2023-04-24T10:54:42;101576.81;;;12.29;100.00
64340;BME280;63709;53.258;-8.814;2023-04-24T10:59:47;101561.88;;;12.64;100.00
64340;BME280;63709;53.258;-8.814;2023-04-24T11:02:16;101579.22;;;12.71;100.00
64340;BME280;63709;53.258;-8.814;2023-04-24T11:04:44;101578.84;;;13.01;100.00
64340;BME280;63709;53.258;-8.814;2023-04-24T11:07:13;101589.53;;;12.77;100.00
64340;BME280;63709;53.258;-8.814;2023-04-24T11:09:41;101565.72;;;12.85;100.00
64340;BME280;63709;53.258;-8.814;2023-04-24T11:12:10;101584.34;;;12.87;100.00
64340;BME280;63709;53.258;-8.814;2023-04-24T11:17:30;101591.22;;;12.78;100.00
64340;BME280;63709;53.258;-8.814;2023-04-24T11:20:08;101587.19;;;12.72;100.00
64340;BME280;63709;53.258;-8.814;2023-04-24T11:22:38;101601.50;;;12.84;100.00
64340;BME280;63709;53.258;-8.814;2023-04-24T11:25:05;101581.94;;;12.58;99.93
64340;BME280;63709;53.258;-8.814;2023-04-24T11:27:42;101601.66;;;13.06;100.00
64340;BME280;63709;53.258;-8.814;2023-04-24T11:30:10;101591.69;;;12.59;91.32
64340;BME280;63709;53.258;-8.814;2023-04-24T11:32:41;101603.22;;;12.85;94.31
64340;BME280;63709;53.258;-8.814;2023-04-24T11:37:49;101599.78;;;13.32;95.50
64340;BME280;63709;53.258;-8.814;2023-04-24T11:40:18;101591.31;;;12.89;79.49
64340;BME280;63709;53.258;-8.814;2023-04-24T11:42:50;101598.75;;;12.73;75.29
64340;BME280;63709;53.258;-8.814;2023-04-24T11:45:20;101582.13;;;12.68;75.33
64340;BME280;63709;53.258;-8.814;2023-04-24T11:47:46;101594.63;;;12.93;76.04
64340;BME280;63709;53.258;-8.814;2023-04-24T11:50:18;101604.41;;;13.54;80.56
64340;BME280;63709;53.258;-8.814;2023-04-24T11:52:48;101576.28;;;14.07;76.15
64340;BME280;63709;53.258;-8.814;2023-04-24T11:57:42;101600.41;;;14.64;71.46
64340;BME280;63709;53.258;-8.814;2023-04-24T12:00:23;101585.16;;;15.31;70.03
64340;BME280;63709;53.258;-8.814;2023-04-24T12:02:51;101604.53;;;15.89;77.56
64340;BME280;63709;53.258;-8.814;2023-04-24T12:05:25;101588.91;;;16.04;65.78
64340;BME280;63709;53.258;-8.814;2023-04-24T12:07:52;101596.69;;;16.28;64.71
64340;BME280;63709;53.258;-8.814;2023-04-24T12:10:22;101592.75;;;16.62;65.20
64340;BME280;63709;53.258;-8.814;2023-04-24T12:12:49;101587.78;;;16.58;67.90
64340;BME280;63709;53.258;-8.814;2023-04-24T12:15:23;101571.06;;;16.95;61.21
64340;BME280;63709;53.258;-8.814;2023-04-24T12:17:51;101589.09;;;17.04;57.03
64340;BME280;63709;53.258;-8.814;2023-04-24T12:20:16;101538.41;;;16.27;56.89
64340;BME280;63709;53.258;-8.814;2023-04-24T12:22:51;101551.19;;;16.25;63.89
64340;BME280;63709;53.258;-8.814;2023-04-24T12:25:19;101611.66;;;15.79;58.90
64340;BME280;63709;53.258;-8.814;2023-04-24T12:27:47;101614.41;;;15.13;59.08
64340;BME280;63709;53.258;-8.814;2023-04-24T12:30:18;101611.50;;;14.93;57.75
64340;BME280;63709;53.258;-8.814;2023-04-24T12:32:46;101614.38;;;14.34;57.33
64340;BME280;63709;53.258;-8.814;2023-04-24T12:35:13;101622.69;;;14.42;58.32
64340;BME280;63709;53.258;-8.814;2023-04-24T12:37:42;101619.38;;;14.27;59.25
64340;BME280;63709;53.258;-8.814;2023-04-24T12:40:10;101562.84;;;14.07;58.69
64340;BME280;63709;53.258;-8.814;2023-04-24T12:42:43;101622.16;;;14.61;63.35
64340;BME280;63709;53.258;-8.814;2023-04-24T12:45:11;101607.25;;;14.68;57.91